createdAt,value
2022-08-01T00:00:26.360Z,4.57
2022-08-01T00:03:27.973Z,4.43
2022-08-01T00:06:30.149Z,4.72
2022-08-01T00:09:32.001Z,4.68
2022-08-01T00:12:33.789Z,4.65
2022-08-01T00:15:35.564Z,4.65
2022-08-01T00:18:37.189Z,5.57
2022-08-01T00:21:40.107Z,4.95
2022-08-01T00:24:53.819Z,4.65
2022-08-01T00:27:55.501Z,4.80
2022-08-01T00:30:57.175Z,4.60
2022-08-01T00:33:58.859Z,4.60
2022-08-01T00:37:00.647Z,4.63
2022-08-01T00:40:02.430Z,4.75
2022-08-01T00:43:04.672Z,4.53
2022-08-01T00:46:06.469Z,4.20
2022-08-01T00:49:10.556Z,4.20
2022-08-01T00:52:13.138Z,4.30
2022-08-01T00:55:15.302Z,3.70
2022-08-01T00:58:17.845Z,3.40
2022-08-01T01:01:21.668Z,4.18
2022-08-01T01:04:23.560Z,3.30
2022-08-01T01:07:50.277Z,3.10
2022-08-01T01:11:05.484Z,3.10
2022-08-01T01:14:14.577Z,2.80
2022-08-01T01:17:31.273Z,2.90
2022-08-01T01:20:45.639Z,2.63
2022-08-01T01:24:04.819Z,2.75
2022-08-01T01:27:19.510Z,2.58
2022-08-01T01:30:26.710Z,2.40
2022-08-01T01:33:32.211Z,2.50
2022-08-01T01:36:34.893Z,2.43
2022-08-01T01:39:39.502Z,2.72
2022-08-01T01:42:47.877Z,2.70
2022-08-01T01:45:52.909Z,2.70
2022-08-01T01:48:57.898Z,2.70
2022-08-01T01:52:02.532Z,2.38
2022-08-01T01:55:08.005Z,2.45
2022-08-01T01:58:14.288Z,2.70
2022-08-01T02:01:17.005Z,2.90
2022-08-01T02:04:43.768Z,2.53
2022-08-01T02:07:46.191Z,2.72
2022-08-01T02:11:12.805Z,2.85
2022-08-01T02:14:16.545Z,2.83
2022-08-01T02:17:21.066Z,2.58
2022-08-01T02:20:23.156Z,2.80
2022-08-01T02:23:28.179Z,2.60
2022-08-01T02:26:31.831Z,2.72
2022-08-01T02:29:58.499Z,2.65
2022-08-01T02:33:05.973Z,2.60
2022-08-01T02:36:31.691Z,2.38
2022-08-01T02:39:32.900Z,2.33
2022-08-01T02:42:38.871Z,2.60
2022-08-01T02:45:44.715Z,2.70
2022-08-01T02:48:48.928Z,2.47
2022-08-01T02:51:53.966Z,2.50
2022-08-01T02:54:57.360Z,2.63
2022-08-01T02:58:00.835Z,2.70
2022-08-01T03:01:03.880Z,3.00
2022-08-01T03:04:08.017Z,2.70
2022-08-01T03:07:11.679Z,2.95
2022-08-01T03:10:17.102Z,2.97
2022-08-01T03:13:19.974Z,3.00
2022-08-01T03:16:25.173Z,3.03
2022-08-01T03:19:29.347Z,3.13
2022-08-01T03:22:34.688Z,2.83
2022-08-01T03:25:40.842Z,3.30
2022-08-01T03:28:45.111Z,2.72
2022-08-01T03:31:48.990Z,2.63
2022-08-01T03:34:50.929Z,2.50
2022-08-01T03:38:15.326Z,2.55
2022-08-01T03:41:22.122Z,2.40
2022-08-01T03:47:32.355Z,2.63
2022-08-01T03:50:35.826Z,2.40
2022-08-01T03:53:42.277Z,2.30
2022-08-01T03:56:47.100Z,2.80
2022-08-01T03:59:50.111Z,2.90
2022-08-01T04:02:52.492Z,2.70
2022-08-01T04:05:54.415Z,2.65
2022-08-01T04:08:58.851Z,2.70
2022-08-01T04:12:01.142Z,2.72
2022-08-01T04:15:11.715Z,2.65
2022-08-01T04:18:13.318Z,3.20
2022-08-01T04:21:18.645Z,3.40
2022-08-01T04:24:23.242Z,3.92
2022-08-01T04:27:48.500Z,3.65
2022-08-01T04:31:01.820Z,3.60
2022-08-01T04:34:06.720Z,3.67
2022-08-01T04:37:13.255Z,4.00
2022-08-01T04:40:16.223Z,4.22
2022-08-01T04:43:20.911Z,3.70
2022-08-01T04:46:23.569Z,3.83
2022-08-01T04:49:25.464Z,4.32
2022-08-01T04:52:37.414Z,4.18
2022-08-01T04:55:39.024Z,4.40
2022-08-01T04:58:42.116Z,4.30
2022-08-01T05:01:43.725Z,4.03
2022-08-01T05:04:46.751Z,3.92
2022-08-01T05:07:48.334Z,3.35
2022-08-01T05:10:50.004Z,3.25
2022-08-01T05:13:52.462Z,2.80
2022-08-01T05:16:54.340Z,2.70
2022-08-01T05:19:56.129Z,2.35
2022-08-01T05:22:58.201Z,2.33
2022-08-01T05:25:59.862Z,2.22
2022-08-01T05:29:01.642Z,2.05
2022-08-01T05:32:04.238Z,2.10
2022-08-01T05:35:06.721Z,2.30
2022-08-01T05:38:08.326Z,2.35
2022-08-01T05:41:15.825Z,1.77
2022-08-01T05:44:17.431Z,1.80
2022-08-01T05:47:19.244Z,1.90
2022-08-01T05:50:20.916Z,1.92
2022-08-01T05:53:22.587Z,1.92
2022-08-01T05:56:24.457Z,2.15
2022-08-01T05:59:26.653Z,2.40
2022-08-01T06:02:28.904Z,2.45
2022-08-01T06:05:30.719Z,2.45
2022-08-01T06:08:32.815Z,2.13
2022-08-01T06:11:34.471Z,2.30
2022-08-01T06:14:36.105Z,2.40
2022-08-01T06:17:37.842Z,2.42
2022-08-01T06:20:39.439Z,2.25
2022-08-01T06:23:42.534Z,2.40
2022-08-01T06:26:44.163Z,2.53
2022-08-01T06:29:53.497Z,2.53
2022-08-01T06:33:00.848Z,2.40
2022-08-01T06:36:02.474Z,2.42
2022-08-01T06:39:04.383Z,2.45
2022-08-01T06:42:06.252Z,2.53
2022-08-01T06:45:12.937Z,2.70
2022-08-01T06:51:19.011Z,1.83
2022-08-01T06:54:20.625Z,1.70
2022-08-01T06:57:22.248Z,1.58
2022-08-01T07:00:25.524Z,1.20
2022-08-01T07:03:54.062Z,1.70
2022-08-01T07:06:49.774Z,1.00
2022-08-01T07:09:51.381Z,1.10
2022-08-01T07:12:54.913Z,1.20
2022-08-01T07:15:56.588Z,1.40
2022-08-01T07:18:58.329Z,1.42
2022-08-01T07:22:00.012Z,1.38
2022-08-01T07:25:01.750Z,1.50
2022-08-01T07:28:03.625Z,1.30
2022-08-01T07:31:05.319Z,1.50
2022-08-01T07:34:08.066Z,1.38
2022-08-01T07:37:09.787Z,1.55
2022-08-01T07:40:12.003Z,1.52
2022-08-01T07:43:14.170Z,1.42
2022-08-01T07:46:16.502Z,1.50
2022-08-01T07:49:18.246Z,1.70
2022-08-01T07:52:20.791Z,1.50
2022-08-01T07:55:22.610Z,1.60
2022-08-01T07:58:24.276Z,1.83
2022-08-01T08:01:25.970Z,1.60
2022-08-01T08:04:28.808Z,1.70
2022-08-01T08:07:30.604Z,1.90
2022-08-01T08:10:32.446Z,1.95
2022-08-01T08:13:34.052Z,1.70
2022-08-01T08:16:35.708Z,1.70
2022-08-01T08:19:39.698Z,1.70
2022-08-01T08:22:41.670Z,2.00
2022-08-01T08:25:43.362Z,1.77
2022-08-01T08:28:45.037Z,1.60
2022-08-01T08:31:52.234Z,1.90
2022-08-01T08:34:54.427Z,1.80
2022-08-01T08:37:56.169Z,1.50
2022-08-01T08:41:00.850Z,1.40
2022-08-01T08:44:09.988Z,1.20
2022-08-01T08:47:19.082Z,1.30
2022-08-01T08:50:22.012Z,1.00
2022-08-01T08:53:24.761Z,1.02
2022-08-01T08:56:38.539Z,1.20
2022-08-01T08:59:40.633Z,1.00
2022-08-01T09:02:44.345Z,1.17
2022-08-01T09:05:46.365Z,1.20
2022-08-01T09:08:48.671Z,1.20
2022-08-01T09:11:56.814Z,1.30
2022-08-01T09:15:00.091Z,1.20
2022-08-01T09:18:01.717Z,1.30
2022-08-01T09:21:09.971Z,1.20
2022-08-01T09:24:16.769Z,1.40
2022-08-01T09:27:24.997Z,1.40
2022-08-01T09:30:26.908Z,1.33
2022-08-01T09:33:51.196Z,1.30
2022-08-01T09:36:57.454Z,1.50
2022-08-01T09:39:59.223Z,1.40
2022-08-01T09:43:14.984Z,1.27
2022-08-01T09:46:17.358Z,1.20
2022-08-01T09:49:50.812Z,1.30
2022-08-01T09:52:57.959Z,1.00
2022-08-01T09:56:13.340Z,1.00
2022-08-01T09:59:16.787Z,0.88
2022-08-01T10:02:40.147Z,1.10
2022-08-01T10:05:43.936Z,1.00
2022-08-01T10:08:51.614Z,1.00
2022-08-01T10:11:53.716Z,1.02
2022-08-01T10:14:59.350Z,1.00
2022-08-01T10:18:04.756Z,1.10
2022-08-01T10:21:57.073Z,1.10
2022-08-01T10:24:42.394Z,1.00
2022-08-01T10:27:46.550Z,1.10
2022-08-01T10:30:49.853Z,1.00
2022-08-01T10:33:53.379Z,1.10
2022-08-01T10:36:55.371Z,1.40
2022-08-01T10:40:27.093Z,1.38
2022-08-01T10:43:21.542Z,1.00
2022-08-01T10:46:24.240Z,1.10
2022-08-01T10:49:31.667Z,1.30
2022-08-01T10:52:39.169Z,1.60
2022-08-01T10:56:08.519Z,1.60
2022-08-01T10:59:11.593Z,2.35
2022-08-01T11:02:46.404Z,2.58
2022-08-01T11:05:53.258Z,3.75
2022-08-01T11:08:55.945Z,2.97
2022-08-01T11:12:08.925Z,3.30
2022-08-01T11:15:16.393Z,4.05
2022-08-01T11:18:32.095Z,4.32
2022-08-01T11:21:59.347Z,3.80
2022-08-01T11:25:03.016Z,3.78
2022-08-01T11:28:28.241Z,3.50
2022-08-01T11:31:37.604Z,3.22
2022-08-01T11:34:56.770Z,2.78
2022-08-01T11:38:25.344Z,2.80
2022-08-01T11:41:38.697Z,2.70
2022-08-01T11:44:59.255Z,2.72
2022-08-01T11:48:01.494Z,2.80
2022-08-01T11:51:03.710Z,2.85
2022-08-01T11:54:05.632Z,2.90
2022-08-01T11:57:10.359Z,2.75
2022-08-01T12:00:15.346Z,3.33
2022-08-01T12:03:33.501Z,3.10
2022-08-01T12:06:35.488Z,3.63
2022-08-01T12:09:37.115Z,3.65
2022-08-01T12:12:44.729Z,3.40
2022-08-01T12:15:47.532Z,3.35
2022-08-01T12:18:49.848Z,3.60
2022-08-01T12:22:08.711Z,3.55
2022-08-01T12:25:11.502Z,3.28
2022-08-01T12:28:15.914Z,3.40
2022-08-01T12:31:17.640Z,3.30
2022-08-01T12:34:26.393Z,3.40
2022-08-01T12:37:28.429Z,3.50
2022-08-01T12:40:32.323Z,3.22
2022-08-01T12:43:35.469Z,3.33
2022-08-01T12:46:39.509Z,4.00
2022-08-01T12:49:46.692Z,3.25
2022-08-01T12:52:49.619Z,3.15
2022-08-01T12:55:59.134Z,3.38
2022-08-01T12:59:01.650Z,2.72
2022-08-01T13:02:09.637Z,2.67
2022-08-01T13:05:12.423Z,2.80
2022-08-01T13:08:16.506Z,2.78
2022-08-01T13:11:19.793Z,2.55
2022-08-01T13:14:30.381Z,2.80
2022-08-01T13:17:40.917Z,2.95
2022-08-01T13:20:42.607Z,2.70
2022-08-01T13:24:10.539Z,2.70
2022-08-01T13:27:24.830Z,3.30
2022-08-01T13:30:26.444Z,3.28
2022-08-01T13:33:40.718Z,3.20
2022-08-01T13:36:48.590Z,3.38
2022-08-01T13:39:51.241Z,3.30
2022-08-01T13:42:53.222Z,3.83
2022-08-01T13:45:54.846Z,3.22
2022-08-01T13:48:56.555Z,3.70
2022-08-01T13:51:59.010Z,3.80
2022-08-01T13:55:02.054Z,3.47
2022-08-01T13:58:03.978Z,3.97
2022-08-01T14:01:06.144Z,4.22
2022-08-01T14:04:07.939Z,4.07
2022-08-01T14:07:14.396Z,3.92
2022-08-01T14:10:19.324Z,3.88
2022-08-01T14:13:23.835Z,4.10
2022-08-01T14:16:25.930Z,4.32
2022-08-01T14:19:38.777Z,4.30
2022-08-01T14:22:41.650Z,4.28
2022-08-01T14:26:01.479Z,3.72
2022-08-01T14:29:05.036Z,3.38
2022-08-01T14:32:07.270Z,3.03
2022-08-01T14:35:09.590Z,2.88
2022-08-01T14:38:11.216Z,3.33
2022-08-01T14:41:13.219Z,3.10
2022-08-01T14:44:14.902Z,3.40
2022-08-01T14:47:21.597Z,3.00
2022-08-01T14:50:25.085Z,2.90
2022-08-01T14:53:26.641Z,2.85
2022-08-01T14:56:28.336Z,2.70
2022-08-01T14:59:30.003Z,3.30
2022-08-01T15:02:31.612Z,3.10
2022-08-01T15:05:33.873Z,2.80
2022-08-01T15:08:36.360Z,2.70
2022-08-01T15:11:38.433Z,2.75
2022-08-01T15:14:48.988Z,3.00
2022-08-01T15:17:52.624Z,2.67
2022-08-01T15:20:54.563Z,2.65
2022-08-01T15:23:56.540Z,2.50
2022-08-01T15:26:58.599Z,3.08
2022-08-01T15:30:00.263Z,2.78
2022-08-01T15:33:01.855Z,2.30
2022-08-01T15:36:03.685Z,2.60
2022-08-01T15:39:05.331Z,2.35
2022-08-01T15:42:10.416Z,2.15
2022-08-01T15:45:37.482Z,2.45
2022-08-01T15:48:39.830Z,2.28
2022-08-01T15:51:42.050Z,2.00
2022-08-01T15:54:43.734Z,1.90
2022-08-01T15:57:45.779Z,1.92
2022-08-01T16:00:47.529Z,1.90
2022-08-01T16:03:49.173Z,1.88
2022-08-01T16:06:51.102Z,2.05
2022-08-01T16:09:52.813Z,1.77
2022-08-01T16:12:54.453Z,2.10
2022-08-01T16:15:56.075Z,2.00
2022-08-01T16:18:57.742Z,2.17
2022-08-01T16:21:59.413Z,1.67
2022-08-01T16:25:01.178Z,1.80
2022-08-01T16:28:02.949Z,1.70
2022-08-01T16:31:15.973Z,1.60
2022-08-01T16:34:26.590Z,2.03
2022-08-01T16:37:28.230Z,1.75
2022-08-01T16:40:29.910Z,1.60
2022-08-01T16:43:31.581Z,1.67
2022-08-01T16:46:33.242Z,1.77
2022-08-01T16:49:34.894Z,1.70
2022-08-01T16:52:41.672Z,1.50
2022-08-01T16:55:50.652Z,1.60
2022-08-01T16:58:52.625Z,1.70
2022-08-01T17:02:00.027Z,1.70
2022-08-01T17:05:07.131Z,1.70
2022-08-01T17:08:11.093Z,1.58
2022-08-01T17:11:13.276Z,1.70
2022-08-01T17:14:15.111Z,1.77
2022-08-01T17:17:17.048Z,1.50
2022-08-01T17:20:18.867Z,1.73
2022-08-01T17:23:20.528Z,1.60
2022-08-01T17:26:22.217Z,1.60
2022-08-01T17:29:24.016Z,1.70
2022-08-01T17:32:25.801Z,1.55
2022-08-01T17:35:28.030Z,1.50
2022-08-01T17:38:29.631Z,1.42
2022-08-01T17:41:31.631Z,1.60
2022-08-01T17:44:33.246Z,1.48
2022-08-01T17:47:50.306Z,1.70
2022-08-01T17:50:53.139Z,2.15
2022-08-01T17:53:57.160Z,1.45
2022-08-01T17:56:59.576Z,1.40
2022-08-01T18:00:01.435Z,1.75
2022-08-01T18:03:08.095Z,1.50
2022-08-01T18:06:13.497Z,1.83
2022-08-01T18:09:15.193Z,1.77
2022-08-01T18:12:17.175Z,1.77
2022-08-01T18:15:24.536Z,1.95
2022-08-01T18:18:33.201Z,2.08
2022-08-01T18:21:39.737Z,1.70
2022-08-01T18:24:44.183Z,1.80
2022-08-01T18:28:30.640Z,1.80
2022-08-01T18:31:08.374Z,1.80
2022-08-01T18:34:10.121Z,1.70
2022-08-01T18:37:14.700Z,1.70
2022-08-01T18:40:22.625Z,1.77
2022-08-01T18:43:25.046Z,1.85
2022-08-01T18:46:27.250Z,1.70
2022-08-01T18:49:29.318Z,1.70
2022-08-01T18:52:32.503Z,1.63
2022-08-01T18:55:34.194Z,1.63
2022-08-01T18:58:36.344Z,1.58
2022-08-01T19:01:40.905Z,1.85
2022-08-01T19:04:43.978Z,1.58
2022-08-01T19:08:04.981Z,1.80
2022-08-01T19:11:07.369Z,1.83
2022-08-01T19:14:09.029Z,1.63
2022-08-01T19:17:10.773Z,1.90
2022-08-01T19:20:12.372Z,1.80
2022-08-01T19:23:32.558Z,2.00
2022-08-01T19:26:36.218Z,1.90
2022-08-01T19:29:39.259Z,1.70
2022-08-01T19:32:43.482Z,1.80
2022-08-01T19:35:46.233Z,2.10
2022-08-01T19:38:48.829Z,1.75
2022-08-01T19:41:51.977Z,2.08
2022-08-01T19:44:54.486Z,2.03
2022-08-01T19:47:57.807Z,4.30
2022-08-01T19:51:02.205Z,7.68
2022-08-01T19:54:06.089Z,2.75
2022-08-01T19:57:09.240Z,2.00
2022-08-01T20:00:23.804Z,2.55
2022-08-01T20:03:32.644Z,2.10
2022-08-01T20:06:35.365Z,2.53
2022-08-01T20:09:40.223Z,2.05
2022-08-01T20:12:42.212Z,1.90
2022-08-01T20:15:45.110Z,1.95
2022-08-01T20:18:47.047Z,1.80
2022-08-01T20:22:03.740Z,2.00
2022-08-01T20:25:06.263Z,2.10
2022-08-01T20:28:12.727Z,2.25
2022-08-01T20:34:22.424Z,2.22
2022-08-01T20:38:05.990Z,2.20
2022-08-01T20:40:49.748Z,1.90
2022-08-01T20:43:56.289Z,2.10
2022-08-01T20:50:27.720Z,2.13
2022-08-01T20:53:43.715Z,2.22
2022-08-01T20:56:54.677Z,1.98
2022-08-01T21:00:04.246Z,1.77
2022-08-01T21:03:16.056Z,2.17
2022-08-01T21:06:22.740Z,2.10
2022-08-01T21:09:26.756Z,2.00
2022-08-01T21:12:49.606Z,2.17
2022-08-01T21:16:07.498Z,2.22
2022-08-01T21:19:26.733Z,2.08
2022-08-01T21:22:53.050Z,2.33
2022-08-01T21:25:58.016Z,2.22
2022-08-01T21:29:02.433Z,2.30
2022-08-01T21:32:12.602Z,2.10
2022-08-01T21:35:16.308Z,2.47
2022-08-01T21:38:20.440Z,2.03
2022-08-01T21:42:03.430Z,1.95
2022-08-01T21:44:47.976Z,2.22
2022-08-01T21:47:50.580Z,2.40
2022-08-01T21:50:59.370Z,2.65
2022-08-01T21:54:24.566Z,2.30
2022-08-01T21:57:55.620Z,2.28
2022-08-01T22:01:13.586Z,1.85
2022-08-01T22:04:18.581Z,2.00
2022-08-01T22:07:22.778Z,2.03
2022-08-01T22:10:26.185Z,2.35
2022-08-01T22:13:27.854Z,2.50
2022-08-01T22:16:31.806Z,2.10
2022-08-01T22:19:45.039Z,2.10
2022-08-01T22:22:52.295Z,2.20
2022-08-01T22:25:55.473Z,3.10
2022-08-01T22:28:58.627Z,2.17
2022-08-01T22:32:01.600Z,2.17
2022-08-01T22:35:06.445Z,2.15
2022-08-01T22:38:09.885Z,2.17
2022-08-01T22:41:16.174Z,2.13
2022-08-01T22:44:27.086Z,2.33
2022-08-01T22:47:50.529Z,2.10
2022-08-01T22:50:59.913Z,2.40
2022-08-01T22:54:04.585Z,2.08
2022-08-01T22:57:14.348Z,2.40
2022-08-01T23:00:16.140Z,2.20
2022-08-01T23:03:24.392Z,2.20
2022-08-01T23:06:35.905Z,2.22
2022-08-01T23:09:52.803Z,2.63
2022-08-01T23:12:56.672Z,2.25
2022-08-01T23:16:00.666Z,2.10
2022-08-01T23:19:02.449Z,2.28
2022-08-01T23:22:04.840Z,2.20
2022-08-01T23:25:10.827Z,2.42
2022-08-01T23:28:13.312Z,2.63
2022-08-01T23:31:16.595Z,2.20
2022-08-01T23:34:20.098Z,2.30
2022-08-01T23:37:22.069Z,2.58
2022-08-01T23:40:25.093Z,2.45
2022-08-01T23:43:26.990Z,2.15
2022-08-01T23:46:28.586Z,2.40
2022-08-01T23:49:30.791Z,2.13
2022-08-01T23:52:34.169Z,2.40
2022-08-01T23:55:38.063Z,2.10
2022-08-01T23:58:39.744Z,1.90
